createdAt,value
2023-03-21T00:01:59.484Z,5.59
2023-03-21T00:04:33.206Z,5.60
2023-03-21T00:07:06.167Z,5.61
2023-03-21T00:09:33.991Z,5.62
2023-03-21T00:12:02.937Z,5.61
2023-03-21T00:14:31.335Z,5.62
2023-03-21T00:16:59.532Z,5.58
2023-03-21T00:19:29.422Z,5.56
2023-03-21T00:22:07.492Z,5.56
2023-03-21T00:24:36.788Z,5.55
2023-03-21T00:27:30.289Z,5.54
2023-03-21T00:29:56.754Z,5.54
2023-03-21T00:32:27.064Z,5.57
2023-03-21T00:35:11.742Z,5.57
2023-03-21T00:37:45.703Z,5.57
2023-03-21T00:40:25.740Z,5.58
2023-03-21T00:42:57.413Z,5.60
2023-03-21T00:45:25.493Z,5.62
2023-03-21T00:47:55.816Z,5.63
2023-03-21T00:50:24.198Z,5.64
2023-03-21T00:52:52.372Z,5.64
2023-03-21T00:55:23.214Z,5.63
2023-03-21T00:58:01.130Z,5.60
2023-03-21T01:00:30.981Z,5.57
2023-03-21T01:03:17.398Z,5.54
2023-03-21T01:06:07.387Z,5.53
2023-03-21T01:08:51.716Z,5.53
2023-03-21T01:11:28.400Z,5.54
2023-03-21T01:14:07.666Z,5.54
2023-03-21T01:16:43.672Z,5.53
2023-03-21T01:19:23.944Z,5.52
2023-03-21T01:21:54.217Z,5.51
2023-03-21T01:24:22.271Z,5.50
2023-03-21T01:26:50.570Z,5.50
2023-03-21T01:29:18.629Z,5.52
2023-03-21T01:31:49.241Z,5.51
2023-03-21T01:34:17.665Z,5.50
2023-03-21T01:37:06.476Z,5.50
2023-03-21T01:39:41.559Z,5.50
2023-03-21T01:42:13.203Z,5.51
2023-03-21T01:45:01.769Z,5.51
2023-03-21T01:47:47.129Z,5.46
2023-03-21T01:50:23.929Z,5.48
2023-03-21T01:53:00.774Z,5.47
2023-03-21T01:55:31.384Z,5.47
2023-03-21T01:58:07.085Z,5.45
2023-03-21T02:01:01.589Z,5.43
2023-03-21T02:03:38.760Z,5.42
2023-03-21T02:06:53.268Z,5.39
2023-03-21T02:09:46.777Z,5.38
2023-03-21T02:12:25.821Z,5.36
2023-03-21T02:14:57.430Z,5.33
2023-03-21T02:18:23.501Z,5.28
2023-03-21T02:21:23.831Z,5.23
2023-03-21T02:24:28.967Z,5.22
2023-03-21T02:27:04.248Z,5.26
2023-03-21T02:29:41.604Z,5.29
2023-03-21T02:32:25.403Z,5.31
2023-03-21T02:35:24.845Z,5.32
2023-03-21T02:38:15.655Z,5.30
2023-03-21T02:40:49.128Z,5.29
2023-03-21T02:43:39.452Z,5.28
2023-03-21T02:46:11.058Z,5.25
2023-03-21T02:48:50.687Z,5.24
2023-03-21T02:51:21.763Z,5.23
2023-03-21T02:54:20.053Z,5.19
2023-03-21T02:56:43.222Z,5.14
2023-03-21T02:59:11.506Z,5.11
2023-03-21T03:01:39.701Z,5.07
2023-03-21T03:04:19.184Z,5.03
2023-03-21T03:07:14.524Z,5.02
2023-03-21T03:10:10.745Z,5.00
2023-03-21T03:12:55.582Z,4.98
2023-03-21T03:15:38.866Z,4.95
2023-03-21T03:18:35.522Z,4.91
2023-03-21T03:21:14.515Z,4.87
2023-03-21T03:23:50.713Z,4.86
2023-03-21T03:26:27.286Z,4.85
2023-03-21T03:29:02.044Z,4.84
2023-03-21T03:31:33.285Z,4.79
2023-03-21T03:34:07.164Z,4.79
2023-03-21T03:36:41.987Z,4.79
2023-03-21T03:39:13.967Z,4.80
2023-03-21T03:44:38.528Z,4.80
2023-03-21T03:47:15.205Z,4.79
2023-03-21T03:49:54.373Z,4.81
2023-03-21T03:52:55.594Z,4.82
2023-03-21T03:55:36.495Z,4.82
2023-03-21T03:58:21.369Z,4.83
2023-03-21T04:00:52.351Z,4.85
2023-03-21T04:03:24.205Z,4.87
2023-03-21T04:05:56.608Z,4.90
2023-03-21T04:08:26.955Z,4.93
2023-03-21T04:10:56.670Z,4.97
2023-03-21T04:13:25.963Z,5.00
2023-03-21T04:16:03.809Z,5.02
2023-03-21T04:18:32.393Z,5.02
2023-03-21T04:21:01.385Z,5.03
2023-03-21T04:23:32.490Z,5.03
2023-03-21T04:26:00.708Z,5.00
2023-03-21T04:28:41.677Z,4.96
2023-03-21T04:31:27.389Z,4.93
2023-03-21T04:34:09.825Z,4.92
2023-03-21T04:36:46.807Z,4.93
2023-03-21T04:39:17.364Z,4.95
2023-03-21T04:41:48.553Z,4.97
2023-03-21T04:44:21.004Z,5.01
2023-03-21T04:46:50.694Z,5.04
2023-03-21T04:49:19.777Z,5.06
2023-03-21T04:51:49.012Z,5.09
2023-03-21T04:54:21.173Z,5.13
2023-03-21T04:56:57.074Z,5.17
2023-03-21T04:59:28.491Z,5.24
2023-03-21T05:01:58.805Z,5.30
2023-03-21T05:04:27.822Z,5.35
2023-03-21T05:06:57.219Z,5.41
2023-03-21T05:09:25.746Z,5.48
2023-03-21T05:11:53.888Z,5.54
2023-03-21T05:14:24.057Z,5.63
2023-03-21T05:16:56.457Z,5.71
2023-03-21T05:19:35.090Z,5.79
2023-03-21T05:22:05.436Z,5.90
2023-03-21T05:24:37.636Z,5.99
2023-03-21T05:27:06.647Z,6.05
2023-03-21T05:29:42.574Z,6.13
2023-03-21T05:32:11.729Z,6.28
2023-03-21T05:34:40.782Z,6.71
2023-03-21T05:37:16.189Z,7.35
2023-03-21T05:39:48.249Z,7.94
2023-03-21T05:42:29.616Z,8.46
2023-03-21T05:44:59.809Z,8.88
2023-03-21T05:47:32.686Z,9.25
2023-03-21T05:50:01.462Z,9.61
2023-03-21T05:52:33.042Z,9.98
2023-03-21T05:55:03.751Z,10.37
2023-03-21T05:57:35.311Z,10.66
2023-03-21T06:00:07.386Z,10.96
2023-03-21T06:02:45.887Z,11.33
2023-03-21T06:05:37.174Z,11.68
2023-03-21T06:08:07.040Z,12.05
2023-03-21T06:10:36.406Z,12.35
2023-03-21T06:13:05.359Z,12.61
2023-03-21T06:15:38.236Z,12.76
2023-03-21T06:18:13.259Z,12.90
2023-03-21T06:20:44.307Z,13.02
2023-03-21T06:23:12.777Z,13.17
2023-03-21T06:25:41.260Z,13.58
2023-03-21T06:28:10.081Z,13.82
2023-03-21T06:30:41.837Z,13.88
2023-03-21T06:33:18.087Z,13.54
2023-03-21T06:35:54.082Z,13.41
2023-03-21T06:38:22.917Z,13.55
2023-03-21T06:40:51.300Z,13.47
2023-03-21T06:43:23.432Z,13.46
2023-03-21T06:45:52.099Z,13.48
2023-03-21T06:48:22.621Z,13.53
2023-03-21T06:50:55.332Z,13.76
2023-03-21T06:53:27.585Z,14.13
2023-03-21T06:56:29.702Z,14.59
2023-03-21T06:58:58.152Z,14.81
2023-03-21T07:01:49.716Z,15.34
2023-03-21T07:04:20.341Z,15.95
2023-03-21T07:06:48.544Z,16.55
2023-03-21T07:09:24.659Z,17.09
2023-03-21T07:11:54.663Z,17.61
2023-03-21T07:14:26.026Z,17.93
2023-03-21T07:16:57.029Z,18.26
2023-03-21T07:19:26.437Z,18.58
2023-03-21T07:21:54.679Z,18.71
2023-03-21T07:24:25.090Z,18.87
2023-03-21T07:26:54.720Z,19.09
2023-03-21T07:29:23.414Z,19.33
2023-03-21T07:31:54.514Z,19.53
2023-03-21T07:34:24.091Z,19.52
2023-03-21T07:36:52.245Z,19.64
2023-03-21T07:39:23.365Z,20.03
2023-03-21T07:41:55.786Z,20.27
2023-03-21T07:44:33.666Z,20.48
2023-03-21T07:47:06.421Z,20.58
2023-03-21T07:49:34.869Z,20.71
2023-03-21T07:52:08.235Z,20.86
2023-03-21T07:54:40.381Z,20.92
2023-03-21T07:57:08.541Z,20.98
2023-03-21T07:59:38.817Z,20.99
2023-03-21T08:02:07.370Z,21.12
2023-03-21T08:04:35.685Z,21.09
2023-03-21T08:07:04.650Z,21.01
2023-03-21T08:09:35.331Z,20.69
2023-03-21T08:12:11.283Z,20.52
2023-03-21T08:14:40.731Z,20.55
2023-03-21T08:17:09.670Z,20.84
2023-03-21T08:19:38.639Z,20.81
2023-03-21T08:22:07.094Z,20.67
2023-03-21T08:24:35.746Z,20.58
2023-03-21T08:27:12.311Z,20.55
2023-03-21T08:29:42.386Z,20.58
2023-03-21T08:32:12.681Z,20.67
2023-03-21T08:34:43.032Z,20.89
2023-03-21T08:37:13.813Z,20.98
2023-03-21T08:39:41.873Z,20.86
2023-03-21T08:42:11.680Z,20.67
2023-03-21T08:44:41.556Z,20.46
2023-03-21T08:47:09.702Z,20.34
2023-03-21T08:49:38.503Z,20.45
2023-03-21T08:52:07.024Z,20.19
2023-03-21T08:54:36.627Z,19.73
2023-03-21T08:57:04.668Z,19.45
2023-03-21T08:59:32.953Z,19.22
2023-03-21T09:02:01.006Z,19.30
2023-03-21T09:04:31.174Z,19.84
2023-03-21T09:07:01.700Z,20.11
2023-03-21T09:09:29.982Z,19.99
2023-03-21T09:12:00.513Z,19.89
2023-03-21T09:14:29.371Z,19.93
2023-03-21T09:16:57.753Z,19.92
2023-03-21T09:19:28.690Z,19.93
2023-03-21T09:21:57.716Z,19.84
2023-03-21T09:24:26.642Z,19.69
2023-03-21T09:26:56.160Z,19.63
2023-03-21T09:29:25.183Z,19.54
2023-03-21T09:31:55.180Z,19.52
2023-03-21T09:34:23.516Z,19.56
2023-03-21T09:36:57.393Z,19.74
2023-03-21T09:39:28.562Z,19.64
2023-03-21T09:42:33.280Z,19.34
2023-03-21T09:45:13.673Z,19.04
2023-03-21T09:47:53.232Z,18.86
2023-03-21T09:50:28.015Z,18.86
2023-03-21T09:53:21.178Z,19.15
2023-03-21T09:55:49.462Z,19.54
2023-03-21T09:58:31.326Z,19.76
2023-03-21T10:01:10.531Z,19.99
2023-03-21T10:03:38.845Z,20.23
2023-03-21T10:06:12.436Z,20.35
2023-03-21T10:08:41.953Z,20.57
2023-03-21T10:11:23.945Z,20.76
2023-03-21T10:14:21.486Z,20.75
2023-03-21T10:16:52.768Z,20.75
2023-03-21T10:19:20.975Z,20.89
2023-03-21T10:22:06.151Z,21.05
2023-03-21T10:24:34.714Z,21.20
2023-03-21T10:27:03.564Z,21.31
2023-03-21T10:29:37.784Z,21.27
2023-03-21T10:32:08.520Z,20.99
2023-03-21T10:34:39.176Z,20.67
2023-03-21T10:37:07.656Z,20.79
2023-03-21T10:39:40.344Z,20.83
2023-03-21T10:42:26.042Z,20.68
2023-03-21T10:44:56.577Z,20.70
2023-03-21T10:47:30.924Z,20.69
2023-03-21T10:50:12.688Z,20.76
2023-03-21T10:52:49.750Z,20.66
2023-03-21T10:55:23.351Z,20.27
2023-03-21T10:58:08.643Z,19.88
2023-03-21T11:00:41.552Z,19.71
2023-03-21T11:03:25.618Z,19.73
2023-03-21T11:05:56.300Z,19.94
2023-03-21T11:08:24.816Z,19.99
2023-03-21T11:11:05.860Z,20.15
2023-03-21T11:13:40.915Z,20.39
2023-03-21T11:16:13.264Z,20.41
2023-03-21T11:18:43.796Z,20.26
2023-03-21T11:21:13.652Z,20.24
2023-03-21T11:23:49.634Z,20.38
2023-03-21T11:26:29.899Z,20.49
2023-03-21T11:28:58.154Z,20.51
2023-03-21T11:31:39.001Z,20.48
2023-03-21T11:34:08.376Z,20.21
2023-03-21T11:36:40.991Z,20.04
2023-03-21T11:39:09.190Z,19.67
2023-03-21T11:41:37.536Z,19.44
2023-03-21T11:44:23.832Z,19.56
2023-03-21T11:46:53.289Z,19.82
2023-03-21T11:49:23.795Z,20.07
2023-03-21T11:52:17.950Z,20.28
2023-03-21T11:54:58.374Z,20.50
2023-03-21T11:57:38.827Z,20.53
2023-03-21T12:00:26.303Z,20.64
2023-03-21T12:03:28.907Z,20.72
2023-03-21T12:06:01.665Z,20.66
2023-03-21T12:08:45.211Z,20.53
2023-03-21T12:11:19.642Z,20.54
2023-03-21T12:14:14.535Z,20.47
2023-03-21T12:17:04.818Z,20.38
2023-03-21T12:19:54.286Z,20.31
2023-03-21T12:22:43.055Z,20.11
2023-03-21T12:25:12.857Z,19.81
2023-03-21T12:28:10.324Z,19.49
2023-03-21T12:30:45.073Z,19.15
2023-03-21T12:33:32.610Z,18.95
2023-03-21T12:36:07.043Z,18.76
2023-03-21T12:38:46.451Z,18.54
2023-03-21T12:41:43.777Z,18.28
2023-03-21T12:44:16.345Z,18.11
2023-03-21T12:47:03.120Z,18.08
2023-03-21T12:49:46.473Z,18.16
2023-03-21T12:52:29.624Z,18.13
2023-03-21T12:55:09.504Z,18.09
2023-03-21T12:58:03.366Z,18.12
2023-03-21T13:00:38.864Z,18.17
2023-03-21T13:03:27.666Z,18.26
2023-03-21T13:06:13.576Z,18.38
2023-03-21T13:08:58.910Z,18.46
2023-03-21T13:11:30.811Z,18.51
2023-03-21T13:14:13.815Z,18.56
2023-03-21T13:16:52.560Z,18.50
2023-03-21T13:19:23.237Z,18.45
2023-03-21T13:21:56.997Z,18.49
2023-03-21T13:24:40.342Z,18.48
2023-03-21T13:27:34.288Z,18.39
2023-03-21T13:30:08.798Z,18.31
2023-03-21T13:32:42.070Z,18.26
2023-03-21T13:35:16.227Z,18.20
2023-03-21T13:37:59.482Z,18.10
2023-03-21T13:40:49.857Z,18.06
2023-03-21T13:43:42.973Z,18.03
2023-03-21T13:46:13.502Z,18.14
2023-03-21T13:49:01.377Z,18.31
2023-03-21T13:51:37.123Z,18.53
2023-03-21T13:54:07.151Z,18.68
2023-03-21T13:56:44.441Z,18.80
2023-03-21T13:59:13.849Z,18.72
2023-03-21T14:01:42.815Z,18.60
2023-03-21T14:04:19.428Z,18.54
2023-03-21T14:06:56.192Z,18.47
2023-03-21T14:09:36.725Z,18.42
2023-03-21T14:12:08.203Z,18.34
2023-03-21T14:14:49.043Z,18.19
2023-03-21T14:17:25.233Z,18.07
2023-03-21T14:19:54.641Z,17.91
2023-03-21T14:22:22.955Z,17.79
2023-03-21T14:24:57.620Z,17.66
2023-03-21T14:27:33.962Z,17.59
2023-03-21T14:30:04.465Z,17.51
2023-03-21T14:32:33.730Z,17.43
2023-03-21T14:35:01.844Z,17.36
2023-03-21T14:37:31.706Z,17.29
2023-03-21T14:40:01.501Z,17.21
2023-03-21T14:42:36.718Z,17.07
2023-03-21T14:45:32.804Z,16.98
2023-03-21T14:48:22.154Z,16.81
2023-03-21T14:50:54.850Z,16.82
2023-03-21T14:53:29.387Z,16.77
2023-03-21T14:56:02.926Z,16.68
2023-03-21T14:58:34.329Z,16.55
2023-03-21T15:01:04.233Z,16.43
2023-03-21T15:03:34.434Z,16.28
2023-03-21T15:06:05.812Z,16.11
2023-03-21T15:08:34.803Z,15.96
2023-03-21T15:11:07.540Z,15.81
2023-03-21T15:13:52.573Z,15.67
2023-03-21T15:16:21.301Z,15.51
2023-03-21T15:18:49.502Z,15.37
2023-03-21T15:21:22.313Z,15.23
2023-03-21T15:23:53.852Z,15.06
2023-03-21T15:26:24.457Z,14.87
2023-03-21T15:28:56.893Z,14.69
2023-03-21T15:31:29.973Z,14.54
2023-03-21T15:33:58.326Z,14.40
2023-03-21T15:36:28.637Z,14.28
2023-03-21T15:39:01.587Z,14.17
2023-03-21T15:41:31.164Z,14.07
2023-03-21T15:44:04.392Z,14.01
2023-03-21T15:46:42.152Z,13.97
2023-03-21T15:49:11.078Z,13.92
2023-03-21T15:51:41.594Z,13.87
2023-03-21T15:54:16.254Z,13.83
2023-03-21T15:56:46.190Z,13.83
2023-03-21T15:59:18.170Z,13.84
2023-03-21T16:01:47.442Z,13.88
2023-03-21T16:04:21.193Z,13.95
2023-03-21T16:06:57.927Z,14.06
2023-03-21T16:09:26.138Z,14.18
2023-03-21T16:11:57.390Z,14.29
2023-03-21T16:14:30.573Z,14.34
2023-03-21T16:16:59.183Z,14.25
2023-03-21T16:19:29.873Z,14.24
2023-03-21T16:21:58.087Z,14.28
2023-03-21T16:24:26.361Z,14.32
2023-03-21T16:26:56.743Z,14.34
2023-03-21T16:29:24.937Z,14.37
2023-03-21T16:31:53.477Z,14.42
2023-03-21T16:34:21.939Z,14.47
2023-03-21T16:36:50.195Z,14.49
2023-03-21T16:39:20.711Z,14.50
2023-03-21T16:41:51.053Z,14.50
2023-03-21T16:44:19.684Z,14.51
2023-03-21T16:46:51.943Z,14.52
2023-03-21T16:49:23.869Z,14.55
2023-03-21T16:51:52.631Z,14.56
2023-03-21T16:54:20.886Z,14.60
2023-03-21T16:56:54.137Z,14.62
2023-03-21T16:59:22.276Z,14.57
2023-03-21T17:01:51.855Z,14.51
2023-03-21T17:04:19.969Z,14.45
2023-03-21T17:06:51.726Z,14.42
2023-03-21T17:09:22.495Z,14.41
2023-03-21T17:11:52.992Z,14.42
2023-03-21T17:14:23.097Z,14.39
2023-03-21T17:16:51.572Z,14.36
2023-03-21T17:19:29.112Z,14.32
2023-03-21T17:21:57.656Z,14.30
2023-03-21T17:24:29.898Z,14.28
2023-03-21T17:26:59.669Z,14.28
2023-03-21T17:29:29.508Z,14.28
2023-03-21T17:32:00.024Z,14.29
2023-03-21T17:34:30.824Z,14.30
2023-03-21T17:37:04.722Z,14.31
2023-03-21T17:39:33.490Z,14.33
2023-03-21T17:42:01.628Z,14.33
2023-03-21T17:44:29.742Z,14.33
2023-03-21T17:46:57.792Z,14.32
2023-03-21T17:49:28.272Z,14.31
2023-03-21T17:51:56.509Z,14.30
2023-03-21T17:54:24.730Z,14.29
2023-03-21T17:56:52.801Z,14.28
2023-03-21T17:59:21.018Z,14.29
2023-03-21T18:01:56.245Z,14.28
2023-03-21T18:04:24.529Z,14.26
2023-03-21T18:06:54.306Z,14.19
2023-03-21T18:09:26.650Z,14.08
2023-03-21T18:11:55.325Z,13.99
2023-03-21T18:14:27.886Z,13.93
2023-03-21T18:16:59.289Z,13.86
2023-03-21T18:19:27.651Z,13.76
2023-03-21T18:21:56.188Z,13.67
2023-03-21T18:24:24.956Z,13.63
2023-03-21T18:26:53.283Z,13.61
2023-03-21T18:32:09.632Z,13.60
2023-03-21T18:34:38.924Z,13.61
2023-03-21T18:37:08.565Z,13.63
2023-03-21T18:39:37.162Z,13.64
2023-03-21T18:42:06.478Z,13.65
2023-03-21T18:44:39.008Z,13.66
2023-03-21T18:47:07.799Z,13.66
2023-03-21T18:52:29.342Z,13.65
2023-03-21T18:54:59.385Z,13.65
2023-03-21T18:57:37.326Z,13.64
2023-03-21T19:00:12.960Z,13.63
2023-03-21T19:02:47.540Z,13.61
2023-03-21T19:05:17.603Z,13.58
2023-03-21T19:07:48.012Z,13.54
2023-03-21T19:10:21.026Z,13.53
2023-03-21T19:12:53.064Z,13.50
2023-03-21T19:15:25.214Z,13.49
2023-03-21T19:18:30.748Z,13.49
2023-03-21T19:20:47.574Z,13.47
2023-03-21T19:23:17.351Z,13.45
2023-03-21T19:25:46.173Z,13.42
2023-03-21T19:28:15.339Z,13.39
2023-03-21T19:30:49.890Z,13.35
2023-03-21T19:33:24.659Z,13.30
2023-03-21T19:36:10.926Z,13.29
2023-03-21T19:38:41.871Z,13.28
2023-03-21T19:41:10.103Z,13.27
2023-03-21T19:43:40.152Z,13.27
2023-03-21T19:46:14.811Z,12.51
2023-03-21T19:48:44.064Z,12.15
2023-03-21T19:51:30.088Z,12.08
2023-03-21T19:53:59.438Z,12.03
2023-03-21T19:56:27.987Z,11.99
2023-03-21T19:58:56.832Z,11.96
2023-03-21T20:01:25.312Z,11.95
2023-03-21T20:03:56.915Z,11.96
2023-03-21T20:06:25.033Z,11.96
2023-03-21T20:11:47.423Z,11.97
2023-03-21T20:14:17.177Z,11.95
2023-03-21T20:16:45.659Z,11.94
2023-03-21T20:19:18.441Z,11.92
2023-03-21T20:21:54.716Z,11.91
2023-03-21T20:24:28.481Z,11.90
2023-03-21T20:26:57.509Z,11.89
2023-03-21T20:32:14.360Z,11.88
2023-03-21T20:34:44.620Z,11.86
2023-03-21T20:37:18.314Z,11.82
2023-03-21T20:39:49.255Z,11.81
2023-03-21T20:42:18.325Z,11.81
2023-03-21T20:44:58.459Z,11.83
2023-03-21T20:47:28.166Z,11.85
2023-03-21T20:50:02.361Z,11.85
2023-03-21T20:55:18.902Z,11.84
2023-03-21T20:57:48.725Z,11.83
2023-03-21T21:00:17.804Z,11.79
2023-03-21T21:02:46.588Z,11.74
2023-03-21T21:05:25.810Z,11.64
2023-03-21T21:07:59.456Z,11.48
2023-03-21T21:10:27.761Z,11.35
2023-03-21T21:12:57.105Z,11.27
2023-03-21T21:15:27.298Z,11.85
2023-03-21T21:18:07.835Z,12.32
2023-03-21T21:20:39.655Z,12.41
2023-03-21T21:23:09.534Z,12.45
2023-03-21T21:25:40.078Z,12.50
2023-03-21T21:28:09.727Z,12.49
2023-03-21T21:30:43.386Z,12.50
2023-03-21T21:33:14.558Z,12.51
2023-03-21T21:35:47.696Z,12.54
2023-03-21T21:38:17.796Z,12.58
2023-03-21T21:40:46.728Z,12.61
2023-03-21T21:43:21.681Z,12.65
2023-03-21T21:45:51.098Z,12.67
2023-03-21T21:48:21.019Z,12.69
2023-03-21T21:50:52.049Z,12.70
2023-03-21T21:53:21.637Z,12.70
2023-03-21T21:55:51.153Z,12.70
2023-03-21T21:58:21.344Z,12.70
2023-03-21T22:00:50.196Z,12.71
2023-03-21T22:03:22.391Z,12.73
2023-03-21T22:05:51.609Z,12.74
2023-03-21T22:08:19.818Z,12.71
2023-03-21T22:10:49.018Z,12.58
2023-03-21T22:13:17.021Z,12.38
2023-03-21T22:15:46.268Z,12.11
2023-03-21T22:18:16.189Z,11.91
2023-03-21T22:20:44.588Z,11.80
2023-03-21T22:23:14.291Z,11.77
2023-03-21T22:25:43.859Z,11.80
2023-03-21T22:28:11.762Z,11.88
2023-03-21T22:30:42.468Z,11.96
2023-03-21T22:33:11.228Z,12.02
2023-03-21T22:35:42.362Z,12.06
2023-03-21T22:38:14.724Z,12.07
2023-03-21T22:40:42.783Z,12.08
2023-03-21T22:43:14.560Z,12.08
2023-03-21T22:45:43.237Z,12.08
2023-03-21T22:48:14.307Z,12.08
2023-03-21T22:50:44.853Z,12.08
2023-03-21T22:53:12.956Z,12.01
2023-03-21T22:55:40.973Z,11.20
2023-03-21T22:58:09.103Z,10.95
2023-03-21T23:00:37.446Z,10.85
2023-03-21T23:03:06.172Z,10.80
2023-03-21T23:05:40.072Z,10.78
2023-03-21T23:08:08.087Z,10.74
2023-03-21T23:10:43.897Z,10.70
2023-03-21T23:13:12.158Z,10.80
2023-03-21T23:15:44.024Z,11.54
2023-03-21T23:18:12.842Z,11.70
2023-03-21T23:20:41.397Z,11.74
2023-03-21T23:23:12.267Z,11.73
2023-03-21T23:25:42.512Z,11.74
2023-03-21T23:28:13.280Z,11.73
2023-03-21T23:30:41.723Z,11.66
2023-03-21T23:33:10.073Z,11.57
2023-03-21T23:35:38.787Z,11.51
2023-03-21T23:38:10.720Z,11.50
2023-03-21T23:40:42.026Z,11.47
2023-03-21T23:43:10.513Z,11.47
2023-03-21T23:45:38.553Z,11.46
2023-03-21T23:48:07.635Z,11.44
2023-03-21T23:50:38.992Z,11.40
2023-03-21T23:53:14.822Z,11.38
2023-03-21T23:55:44.851Z,11.38
2023-03-21T23:58:13.046Z,11.41
